Noshiro, Japan

2:35 PM JST on April 25, 2017 (GMT +0900)
Ushu Highway (Akita Highway) | | Change Station

Elev 177 ft 40.00 °N, 140.08 °E | Updated 9 minutes ago

Rain
Rain
58.1 °F
Feels Like 58.1 °F
N
6.2
Wind Variable Wind from NE
Gusts 9.9 mph

Today
High -- | Low -- °F
--% Chance of Precip.
Yesterday
High -- | Low -- °F
Precip. -- in
Pressure 30.09 in
Visibility 6.2 miles
Clouds Few 3000 ft
Scattered Clouds 5000 ft
Mostly Cloudy 8000 ft
Dew Point 50 °F
Humidity 74%
Rainfall 0.01 in
Snow Depth Not available.
4:47 AM 6:28 PM
Waning Crescent, 2% visible
SPECI RJSA 250526Z 24016G26KT 9999 FEW030 SCT050 BKN080 17/05 Q1019 RMK 1CU030 3CU050 6AC080 A3010
Pressure 30.09 in
Visibility 6.2 miles
Clouds Few 3000 ft
Scattered Clouds 5000 ft
Mostly Cloudy 8000 ft
Dew Point 50 °F
Humidity 74%
Rainfall 0.01 in
Snow Depth Not available.
4:47 AM 6:28 PM
Waning Crescent, 2% visible
SPECI RJSA 250526Z 24016G26KT 9999 FEW030 SCT050 BKN080 17/05 Q1019 RMK 1CU030 3CU050 6AC080 A3010

Get Severe Weather Alerts

Thanks for signing up!

Be on the lookout for a verification email in your inbox.

You'll start receiving the daily forecast at 8 AM.

×

10-Day Weather Forecast

No radar image for this location.
×

Almanac

Astronomy

Apr. 25, 2017 Rise Set
Actual Time
Civil Twilight
Nautical Twilight
Astronomical Twilight
Moon
Length of Visible Light
Length of Day
Tomorrow will be .
, % of the Moon is Illuminated

Today's Extremes

Country Highs Country Lows

Community

WunderPhotos

WunderBlog® & News

Nearby

Air Quality

  Air Quality AQ Index Pollutant
Not available.

Snow Depth

Station Depth Elevation

Earthquake Activity

City Distance Mag. Time & Date
Minimum magnitude displayed is 2.5.

Coastal Water Temperatures

Place Temperature

Stations

Nearby Weather Stations

Station Location Temp. Windchill Dew Point Humidity Wind Precip. Elev Updated Type